Latest Weather Observations for Jervois

IDD60801

Issued at 10:01 pm CST Tuesday 3 March 2015 (issued every 30 minutes, with the page automatically refreshed every 10 minutes)

About weather observations | Map of weather stations | Latest weather observations for NT | Other Formats
Station Details ID: 015602 Name: JERVOIS Lat: -22.95 Lon: 136.14 Height: 328.0 m
Data from the previous 72 hours. | See also: Recent months at Jervois
Date/Time
CST
Temp
°C
App
Temp
°C
Dew
Point
Rel
Hum
%
Delta-T
°C
Wind Press
QNH
hPa
Press
MSL
hPa
Rain
since 9 am
mm
Dir
 
Spd
km/h
Gust
km/h
Spd
kts
Gust
kts
03/10:00pm 36.8 33.1 6.5 15 17.0 ENE 15 20 8 11 1010.1 - 0.0
03/09:30pm 37.8 33.9 5.3 13 18.0 SSE 15 30 8 16 1009.2 - 0.0
03/09:00pm 38.2 34.1 6.2 14 18.0 SSE 17 24 9 13 1008.7 1006.7 0.0
03/08:30pm 38.9 34.0 5.3 12 18.7 SSE 20 35 11 19 1008.4 - 0.0
03/08:00pm 39.5 34.8 6.0 13 18.9 SSE 20 30 11 16 1008.1 - 0.0
03/07:30pm 40.0 35.7 6.8 13 19.0 SE 19 28 10 15 1007.7 - 0.0
03/07:00pm 40.4 35.8 6.3 12 19.4 SE 20 28 11 15 1007.3 - 0.0
03/06:30pm 40.6 35.6 6.5 12 19.4 SE 22 33 12 18 1007.2 - 0.0
03/06:00pm 41.4 36.6 7.2 12 19.8 ESE 22 32 12 17 1006.7 1004.7 0.0
03/05:30pm 42.4 37.1 6.8 11 20.5 SE 24 39 13 21 1006.3 - 0.0
03/05:00pm 42.8 37.5 6.7 11 20.8 ESE 24 35 13 19 1006.3 - 0.0
03/04:30pm 42.1 37.7 7.5 12 20.1 E 20 30 11 16 1006.4 - 0.0
03/04:00pm 42.9 38.3 6.6 11 20.9 E 20 41 11 22 1006.5 - 0.0
03/03:30pm 42.7 38.7 8.1 12 20.4 SE 19 30 10 16 1006.8 - 0.0
03/03:00pm 42.9 39.9 7.9 12 20.6 SSE 13 35 7 19 1007.1 1005.1 0.0
03/02:30pm 42.2 38.1 7.7 12 20.1 ESE 19 35 10 19 1007.5 - 0.0
03/02:00pm 42.2 37.2 6.3 11 20.6 E 22 43 12 23 1008.0 - 0.0
03/01:30pm 42.2 37.3 7.0 12 20.4 SE 22 35 12 19 1008.5 - 0.0
03/01:00pm 41.5 35.6 6.0 11 20.2 E 26 37 14 20 1009.0 - 0.0
03/12:30pm 40.9 36.1 5.7 12 19.9 E 20 33 11 18 1009.4 - 0.0
03/12:00pm 40.7 33.8 4.8 11 20.0 E 30 43 16 23 1009.7 1007.7 0.0
03/11:30am 40.1 34.3 4.5 11 19.7 ESE 24 37 13 20 1010.4 - 0.0
03/11:00am 39.3 33.2 4.8 12 19.1 ESE 26 39 14 21 1010.9 - 0.0
03/10:30am 38.4 33.7 5.2 13 18.4 ESE 19 30 10 16 1011.3 - 0.0
03/10:00am 36.9 31.6 5.0 14 17.5 ESE 22 32 12 17 1011.6 - 0.0
03/09:30am 35.1 32.0 7.2 18 15.7 SE 13 20 7 11 1011.7 - 0.0
03/09:00am 33.1 29.6 7.0 19 14.5 ESE 15 24 8 13 1011.4 1009.5 0.0
03/08:30am 31.2 30.1 8.5 24 12.8 S 4 13 2 7 1011.4 - 0.0
03/08:00am 28.2 27.0 9.6 31 10.5 SW 6 9 3 5 1010.9 - 0.0
03/07:30am 27.8 26.3 9.3 31 10.4 W 7 9 4 5 1010.5 - 0.0
03/07:00am 27.2 26.4 9.6 33 9.9 W 4 6 2 3 1010.0 - 0.0
03/06:30am 25.9 24.6 10.1 37 8.9 WSW 7 11 4 6 1009.8 - 0.0
03/06:00am 25.6 25.6 9.7 36 8.9 CALM 0 0 0 0 1009.4 1007.4 0.0
03/05:30am 26.5 26.6 10.1 35 9.3 CALM 0 0 0 0 1009.0 - 0.0
03/05:00am 27.9 27.6 10.0 32 10.2 S 2 7 1 4 1008.8 - 0.0
03/04:30am 28.6 27.2 9.5 30 10.8 SSE 7 9 4 5 1008.6 - 0.0
03/04:00am 29.7 27.7 8.7 27 11.8 SE 9 13 5 7 1008.4 - 0.0
03/03:30am 30.4 28.0 8.5 25 12.3 SE 11 15 6 8 1008.0 - 0.0
03/03:00am 31.2 28.2 7.7 23 13.1 SE 13 17 7 9 1007.8 1005.8 0.0
03/02:30am 31.8 28.4 7.6 22 13.5 SE 15 20 8 11 1008.0 - 0.0
03/02:00am 32.5 28.7 7.4 21 14.0 SE 17 24 9 13 1008.4 - 0.0
03/01:30am 32.7 29.3 7.5 21 14.1 SE 15 24 8 13 1008.5 - 0.0
03/01:00am 32.4 29.0 7.5 21 13.9 SSE 15 22 8 12 1008.6 - 0.0
03/12:30am 32.0 28.6 7.7 22 13.6 SSE 15 20 8 11 1008.5 - 0.0
03/12:00am 32.1 29.2 8.1 22 13.5 SSE 13 17 7 9 1008.7 1006.7 0.0
 
Date/Time
CST
Temp
°C
App
Temp
°C
Dew
Point
Rel
Hum
%
Delta-T
°C
Wind Press
QNH
hPa
Press
MSL
hPa
Rain
since 9 am
mm
Dir
 
Spd
km/h
Gust
km/h
Spd
kts
Gust
kts
02/11:30pm 32.1 30.0 8.4 23 13.4 S 9 13 5 7 1008.6 - 0.0
02/11:00pm 32.4 30.3 8.1 22 13.7 S 9 11 5 6 1008.6 - 0.0
02/10:30pm 33.0 30.5 8.3 21 14.0 SSE 11 15 6 8 1008.6 - 0.0
02/10:00pm 34.0 31.7 7.5 19 14.9 SSE 9 15 5 8 1008.5 - 0.0
02/09:30pm 34.6 31.6 7.5 18 15.3 SSE 13 17 7 9 1008.0 - 0.0
02/09:00pm 35.0 32.4 7.7 18 15.5 SSE 11 15 6 8 1007.6 1005.6 0.0
02/08:30pm 35.5 32.8 7.4 17 15.9 SSE 11 15 6 8 1007.2 - 0.0
02/08:00pm 36.1 33.9 8.0 18 16.1 SSE 9 13 5 7 1006.9 - 0.0
02/07:30pm 36.7 34.6 8.3 17 16.3 SSE 9 13 5 7 1006.5 - 0.0
02/07:00pm 38.3 35.4 6.5 14 17.9 SSE 11 17 6 9 1006.2 - 0.0
02/06:30pm 39.4 35.5 5.5 12 18.9 SE 15 22 8 12 1006.0 - 0.0
02/06:00pm 40.2 35.9 5.2 12 19.6 SSE 17 30 9 16 1005.9 1003.8 0.0
02/05:30pm 40.3 36.8 5.4 12 19.6 SE 13 20 7 11 1005.9 - 0.0
02/05:00pm 40.9 37.4 5.4 11 19.9 SSE 13 22 7 12 1005.8 - 0.0
02/04:30pm 40.9 37.0 5.4 11 19.9 SSE 15 28 8 15 1006.1 - 0.0
02/04:00pm 40.5 36.1 4.8 11 19.8 SE 17 26 9 14 1006.2 - 0.0
02/03:30pm 40.9 37.3 5.0 11 20.1 ESE 13 26 7 14 1006.3 - 0.0
02/03:00pm 40.4 35.3 4.2 11 20.0 SE 20 28 11 15 1006.9 1004.9 0.0
02/02:30pm 40.3 36.9 5.8 12 19.4 E 13 22 7 12 1007.3 - 0.0
02/02:00pm 39.7 36.3 6.1 13 19.0 E 13 24 7 13 1007.6 - 0.0
02/01:30pm 39.7 35.0 6.1 13 19.0 E 20 32 11 17 1007.9 - 0.0
02/01:00pm 38.7 35.1 6.6 14 18.2 E 15 32 8 17 1008.2 - 0.0
02/12:30pm 38.1 35.0 8.9 17 17.1 SE 15 24 8 13 1008.9 - 0.0
02/12:00pm 37.3 34.6 9.1 18 16.5 ESE 13 22 7 12 1009.5 1007.6 0.0
02/11:30am 36.1 33.1 9.4 19 15.6 ESE 15 28 8 15 1010.0 - 0.0
02/11:00am 35.7 32.2 8.7 19 15.6 E 17 30 9 16 1010.2 - 0.0
02/10:30am 34.5 31.1 9.3 21 14.6 E 17 26 9 14 1010.3 - 0.0
02/10:00am 33.7 30.1 9.8 23 13.9 SE 19 26 10 14 1010.6 - 0.0
02/09:30am 32.6 28.8 9.8 24 13.2 E 20 28 11 15 1010.5 - 0.0
02/09:00am 31.1 27.6 10.2 27 12.1 ESE 19 26 10 14 1010.5 1008.5 0.0
02/08:30am 30.4 27.8 10.8 29 11.4 SE 15 20 8 11 1010.5 - 0.0
02/08:00am 28.4 26.5 11.7 35 9.8 SSE 13 19 7 10 1010.4 - 0.0
02/07:30am 26.4 25.0 12.2 41 8.3 SSW 11 17 6 9 1010.4 - 0.0
02/07:00am 25.5 24.4 12.1 43 7.8 SSW 9 15 5 8 1010.1 - 0.0
02/06:30am 25.0 24.4 12.3 45 7.4 SW 7 11 4 6 1010.0 - 0.0
02/06:00am 25.1 24.1 12.2 44 7.5 SW 9 9 5 5 1009.7 1007.7 0.0
02/05:30am 25.7 25.2 12.6 44 7.7 SW 7 9 4 5 1009.6 - 0.0
02/05:00am 26.5 26.0 12.6 42 8.2 SSW 7 9 4 5 1009.5 - 0.0
02/04:30am 27.1 26.1 12.3 39 8.7 S 9 11 5 6 1009.1 - 0.0
02/04:00am 28.0 26.5 12.0 37 9.4 S 11 17 6 9 1008.9 - 0.0
02/03:30am 28.4 27.0 12.1 36 9.6 SSE 11 17 6 9 1008.6 - 0.0
02/03:00am 28.9 27.5 12.2 35 9.9 S 11 19 6 10 1008.7 1006.6 0.0
02/02:30am 29.4 27.9 12.0 34 10.3 SSE 11 15 6 8 1008.8 - 0.0
02/02:00am 29.8 28.0 12.1 33 10.5 SSE 13 20 7 11 1008.7 - 0.0
02/01:30am 30.3 28.0 11.9 32 10.9 SSE 15 20 8 11 1009.0 - 0.0
02/01:00am 30.8 28.5 11.7 31 11.3 SSE 15 20 8 11 1009.1 - 0.0
02/12:30am 31.3 28.9 11.3 29 11.8 SSE 15 22 8 12 1009.2 - 0.0
02/12:00am 31.6 28.8 11.3 28 12.0 SSE 17 22 9 12 1009.1 1007.2 0.0
 
Date/Time
CST
Temp
°C
App
Temp
°C
Dew
Point
Rel
Hum
%
Delta-T
°C
Wind Press
QNH
hPa
Press
MSL
hPa
Rain
since 9 am
mm
Dir
 
Spd
km/h
Gust
km/h
Spd
kts
Gust
kts
01/11:30pm 32.4 29.4 10.8 26 12.7 SSE 17 26 9 14 1009.1 - 0.0
01/11:00pm 32.6 29.6 10.6 26 12.9 SSE 17 24 9 13 1008.9 - 0.0
01/10:30pm 33.2 29.5 10.0 24 13.5 SSE 20 32 11 17 1008.9 - 0.0
01/10:00pm 33.8 30.0 9.2 22 14.2 SSE 19 28 10 15 1008.9 - 0.0
01/09:30pm 34.4 30.5 8.6 20 14.8 SSE 19 30 10 16 1008.6 - 0.0
01/09:00pm 34.7 31.0 8.0 19 15.2 SSE 17 24 9 13 1008.5 1006.5 0.0
01/08:30pm 35.3 31.5 7.6 18 15.7 SSE 17 24 9 13 1008.2 - 0.0
01/08:00pm 35.8 32.0 7.7 18 16.0 SSE 17 26 9 14 1007.8 - 0.0
01/07:30pm 36.6 32.4 7.4 16 16.6 SSE 19 28 10 15 1007.5 - 0.0
01/07:00pm 37.3 32.9 7.3 16 17.1 SSE 20 30 11 16 1007.1 - 0.0
01/06:30pm 38.1 33.1 6.4 14 17.8 SSE 22 30 12 16 1007.0 - 0.0
01/06:00pm 39.0 35.0 6.6 14 18.4 SE 17 30 9 16 1006.9 1004.9 0.0
01/05:30pm 39.3 33.9 6.3 13 18.7 SE 24 35 13 19 1006.4 - 0.0
01/05:00pm 40.1 35.7 6.4 13 19.1 SE 19 30 10 16 1006.1 - 0.0
01/04:30pm 39.8 34.5 5.0 12 19.3 SSE 22 35 12 19 1005.8 - 0.0
01/04:00pm 40.1 34.6 4.2 11 19.7 ESE 22 32 12 17 1005.9 - 0.0
01/03:30pm 40.3 35.7 5.4 12 19.6 SE 19 26 10 14 1006.2 - 0.0
01/03:00pm 40.0 35.6 4.7 11 19.6 ESE 17 30 9 16 1006.4 1004.5 0.0
01/02:30pm 40.2 35.6 3.7 10 19.9 ESE 17 30 9 16 1006.8 - 0.0
01/02:00pm 39.7 34.6 3.2 10 19.7 SE 19 41 10 22 1007.2 - 0.0
01/01:30pm 40.2 36.0 3.6 10 20.0 SE 15 28 8 15 1007.6 - 0.0
01/01:00pm 39.4 34.3 3.2 10 19.5 ESE 19 28 10 15 1008.0 - 0.0
01/12:30pm 38.5 33.7 4.4 12 18.7 SE 19 35 10 19 1008.6 - 0.0
01/12:00pm 38.2 33.0 3.3 11 18.8 ESE 20 32 11 17 1008.9 1006.9 0.0
01/11:30am 37.2 32.7 4.3 13 17.9 SE 17 32 9 17 1009.2 - 0.0
01/11:00am 37.3 32.3 3.8 12 18.1 ESE 19 28 10 15 1009.4 - 0.0
01/10:30am 36.2 31.6 3.8 13 17.4 SSE 17 28 9 15 1009.7 - 0.0
01/10:00am 34.7 30.9 5.7 16 15.9 S 15 26 8 14 1010.0 - 0.0
01/09:30am 34.7 45.8 34.4 98 0.2 SSE 15 26 8 14 1010.0 - 0.0
01/09:00am 33.7 44.0 33.6 99 0.1 S 15 26 8 14 1009.8 1007.7 0.0
01/08:30am 31.6 40.0 31.5 99 0.1 S 15 20 8 11 1009.3 - 0.0
01/08:00am 29.4 37.1 29.3 99 0.1 S 9 15 5 8 1009.2 - 0.0
01/07:30am 28.1 34.9 28.0 99 0.1 S 9 13 5 7 1009.1 - 0.0
01/07:00am 27.3 33.0 27.0 98 0.2 SSW 11 17 6 9 1008.4 - 0.0
01/06:30am 26.4 32.0 26.3 99 0.1 SSW 9 13 5 7 1007.7 - 0.0
01/06:00am 26.8 32.7 26.7 99 0.1 S 9 13 5 7 1007.2 1005.2 0.0
01/05:30am 26.5 32.2 26.4 99 0.1 SSW 9 13 5 7 1006.8 - 0.0
01/05:00am 26.5 32.4 26.2 98 0.2 SSW 7 9 4 5 1006.7 - 0.0
01/04:30am 26.0 32.0 26.0 100 0.0 S 6 7 3 4 1006.3 - 0.0
01/04:00am 27.0 34.4 27.0 100 0.0 ESE 2 6 1 3 1005.9 - 0.0
01/03:30am 29.0 37.4 28.9 99 0.1 ESE 4 6 2 3 1005.7 - 0.0
01/03:00am 29.4 37.2 29.4 100 0.0 ESE 9 11 5 6 1005.6 1003.5 0.0
01/02:30am 29.4 37.2 29.4 100 0.0 ESE 9 11 5 6 1005.6 - 0.0
01/02:00am 30.5 38.8 30.5 100 0.0 ESE 11 17 6 9 1005.6 - 0.0
01/01:30am 30.7 38.8 30.7 100 0.0 ESE 13 17 7 9 1005.8 - 0.0
01/01:00am 31.1 39.9 31.1 100 0.0 E 11 13 6 7 1006.0 - 0.0
01/12:30am 32.3 41.7 32.2 99 0.1 ESE 13 19 7 10 1006.1 - 0.0
01/12:00am 33.0 42.5 32.7 98 0.2 ESE 15 20 8 11 1006.2 1003.9 0.0
 
Date/Time
CST
Temp
°C
App
Temp
°C
Dew
Point
Rel
Hum
%
Delta-T
°C
Wind Press
QNH
hPa
Press
MSL
hPa
Rain
since 9 am
mm
Dir
 
Spd
km/h
Gust
km/h
Spd
kts
Gust
kts
28/11:30pm 33.0 28.5 2.4 14 15.7 ESE 15 20 8 11 1006.4 - 0.0
28/11:00pm 33.0 29.4 2.8 15 15.6 ESE 11 15 6 8 1006.6 - 0.0
28/10:30pm 33.0 29.4 3.1 15 15.6 ESE 11 15 6 8 1006.7 - 0.0

Other Formats:

Comma delimited format used in spreadsheet applications
http://www.bom.gov.au/fwo/IDD60801/IDD60801.94327.axf

JavaScript Object Notation format (JSON) in row-major order
http://www.bom.gov.au/fwo/IDD60801/IDD60801.94327.json